createdAt,value
2022-09-23T00:57:56.771Z,10.7
2022-09-23T01:17:56.776Z,10.7
2022-09-23T01:57:56.883Z,10.4
2022-09-23T02:37:56.894Z,10.1
2022-09-23T02:58:42.157Z,10.1
2022-09-23T03:17:56.816Z,10.1
2022-09-23T03:37:56.909Z,9.9
2022-09-23T03:57:56.920Z,9.7
2022-09-23T04:38:42.191Z,9.3
2022-09-23T05:17:56.940Z,9.2
2022-09-23T05:38:42.249Z,9.3
2022-09-23T05:57:56.951Z,9.4
2022-09-23T06:18:42.216Z,9.8
2022-09-23T06:37:56.983Z,10.1
2022-09-23T06:57:56.868Z,10.5
2022-09-23T07:17:56.884Z,11.1
2022-09-23T07:39:27.397Z,11.6
2022-09-23T07:58:42.157Z,12.5
2022-09-23T08:17:56.906Z,13.5
2022-09-23T08:37:56.921Z,14.6
2022-09-23T08:58:23.334Z,15.1
2022-09-23T09:17:56.960Z,15.8
2022-09-23T09:37:56.949Z,16.2
2022-09-23T09:57:56.902Z,16.7
2022-09-23T10:17:56.909Z,17.5
2022-09-23T10:37:56.919Z,18.5
2022-09-23T10:57:56.955Z,18.9
2022-09-23T11:17:56.959Z,19.3
2022-09-23T11:37:56.992Z,19.6
2022-09-23T11:57:56.995Z,20.0
2022-09-23T12:17:57.010Z,20.3
2022-09-23T12:37:57.016Z,20.5
2022-09-23T12:57:57.029Z,20.7
2022-09-23T13:17:57.035Z,20.6
2022-09-23T13:37:57.044Z,20.5
2022-09-23T13:57:57.071Z,20.5
2022-09-23T14:17:57.070Z,20.2
2022-09-23T14:37:57.107Z,19.8
2022-09-23T14:57:57.080Z,19.5
2022-09-23T15:17:57.085Z,19.4
2022-09-23T15:37:57.095Z,19.3
2022-09-23T15:57:57.106Z,19.2
2022-09-23T16:17:57.114Z,18.8
2022-09-23T16:37:57.133Z,18.5
2022-09-23T16:57:57.131Z,18.2
2022-09-23T17:17:57.136Z,18.0
2022-09-23T17:37:57.144Z,17.7
2022-09-23T17:57:57.149Z,17.5
2022-09-23T18:17:57.157Z,17.2
2022-09-23T18:37:57.182Z,17.0
2022-09-23T18:57:57.180Z,16.8
2022-09-23T19:17:57.202Z,16.7
2022-09-23T19:57:57.183Z,16.3
2022-09-23T21:37:57.232Z,15.8
2022-09-23T21:57:57.219Z,15.8
2022-09-23T22:37:57.241Z,15.6
2022-09-23T22:57:57.244Z,15.4
2022-09-23T23:17:57.245Z,15.2
2022-09-23T23:37:57.257Z,15.1
2022-09-23T23:57:57.264Z,15.1
